Time;durP1;ratioP1;P1;durP2;ratioP2;P2;SDS_P1;SDS_P2;PMS_P1;PMS_P2;Temp;Humidity;BMP_temperature;BMP_pressure;BME280_temperature;BME280_humidity;BME280_pressure;Samples;Min_cycle;Max_cycle;Signal;HPM_P1;HPM_P2
2022/01/20 00:01:45;;;;;;;1.20;0.70;;;4.70;99.90;;;;;;5154487;27;20523;-56
2022/01/20 00:04:24;;;;;;;4.50;1.10;;;4.70;99.90;;;;;;5153707;27;20463;-51
2022/01/20 00:07:24;;;;;;;4.70;1.17;;;4.70;99.90;;;;;;5152627;27;20432;-53
2022/01/20 00:26:22;;;;;;;2.60;1.40;;;4.60;99.90;;;;;;5154182;27;20471;-55
2022/01/20 00:28:53;;;;;;;4.03;1.40;;;4.60;99.90;;;;;;5153409;27;20440;-55
2022/01/20 00:31:40;;;;;;;1.13;0.90;;;4.60;99.90;;;;;;5153723;27;20425;-56
2022/01/20 00:34:30;;;;;;;20.33;2.40;;;4.70;99.90;;;;;;5152825;27;20420;-57
2022/01/20 00:39:40;;;;;;;4.30;1.63;;;4.70;99.90;;;;;;5154546;27;20468;-54
2022/01/20 00:42:08;;;;;;;4.60;2.97;;;4.70;99.90;;;;;;5153297;27;20492;-53
2022/01/20 00:44:38;;;;;;;0.90;0.80;;;4.60;99.90;;;;;;5152797;27;20543;-53
2022/01/20 00:47:05;;;;;;;3.30;0.90;;;4.60;99.90;;;;;;5152824;27;20508;-54
2022/01/20 00:49:32;;;;;;;2.00;1.50;;;4.60;99.90;;;;;;5153702;27;20469;-56
2022/01/20 00:51:58;;;;;;;6.87;0.97;;;4.60;99.90;;;;;;5153132;27;20475;-54
2022/01/20 00:54:25;;;;;;;2.40;0.80;;;4.70;99.90;;;;;;5153565;27;20436;-54
2022/01/20 00:56:51;;;;;;;3.33;1.20;;;4.70;99.90;;;;;;5153785;27;20493;-53
2022/01/20 00:59:18;;;;;;;2.37;1.27;;;4.70;99.90;;;;;;5153155;27;20482;-57
2022/01/20 01:01:46;;;;;;;2.50;1.53;;;4.70;99.90;;;;;;5154663;27;20436;-50
2022/01/20 01:04:13;;;;;;;3.23;2.00;;;4.70;99.90;;;;;;5153702;27;20467;-53
2022/01/20 01:07:00;;;;;;;1.77;1.67;;;4.70;99.90;;;;;;5154079;27;20466;-53
2022/01/20 01:09:27;;;;;;;7.13;1.30;;;4.70;99.90;;;;;;5153612;27;20780;-55
2022/01/20 01:11:58;;;;;;;8.70;1.57;;;4.70;99.90;;;;;;5153519;27;20440;-53
2022/01/20 01:14:25;;;;;;;6.43;1.63;;;4.70;99.90;;;;;;5154279;27;20408;-55
2022/01/20 01:20:14;;;;;;;5.33;1.50;;;4.60;99.90;;;;;;5090427;28;20448;-48
2022/01/20 01:22:41;;;;;;;9.47;1.73;;;4.50;99.90;;;;;;5090607;28;20473;-50
2022/01/20 01:25:09;;;;;;;1.17;0.80;;;4.50;99.90;;;;;;5127963;27;20483;-53
2022/01/20 01:27:39;;;;;;;1.53;1.43;;;4.50;99.90;;;;;;5153747;27;20439;-53
2022/01/20 01:30:17;;;;;;;4.20;1.23;;;4.50;99.90;;;;;;5153540;27;20530;-56
2022/01/20 01:32:49;;;;;;;1.67;1.57;;;4.50;99.90;;;;;;5153080;27;20511;-57
2022/01/20 01:35:18;;;;;;;2.93;1.77;;;4.50;99.90;;;;;;5153002;27;20433;-55
2022/01/20 01:40:30;;;;;;;1.10;0.77;;;4.50;99.90;;;;;;5151999;27;20451;-53
2022/01/20 01:43:00;;;;;;;6.20;2.60;;;4.40;99.90;;;;;;5153281;27;20547;-52
2022/01/20 01:45:30;;;;;;;2.80;1.30;;;4.40;99.90;;;;;;5153356;27;20495;-53
2022/01/20 01:47:59;;;;;;;7.53;1.30;;;4.30;99.90;;;;;;5152934;27;20435;-55
2022/01/20 01:50:26;;;;;;;2.30;1.47;;;4.30;99.90;;;;;;5154378;27;20462;-53
2022/01/20 01:52:54;;;;;;;11.93;1.33;;;4.30;99.90;;;;;;5154313;27;20472;-56
2022/01/20 01:55:23;;;;;;;7.53;1.40;;;4.20;99.90;;;;;;5154693;27;20470;-55
2022/01/20 01:57:50;;;;;;;23.80;1.73;;;4.20;99.90;;;;;;5154598;27;20493;-55
2022/01/20 02:00:18;;;;;;;5.37;1.97;;;4.20;99.90;;;;;;5153992;27;20428;-51
2022/01/20 02:02:45;;;;;;;2.07;1.27;;;4.20;99.90;;;;;;5152826;27;20465;-53
2022/01/20 02:05:16;;;;;;;5.63;1.10;;;4.20;99.90;;;;;;5153254;27;20480;-53
2022/01/20 02:18:52;;;;;;;1.30;0.87;;;4.10;99.90;;;;;;5153338;27;20379;-53
2022/01/20 02:21:20;;;;;;;10.13;1.20;;;4.00;99.90;;;;;;5152965;27;20440;-54
2022/01/20 02:23:48;;;;;;;1.70;1.03;;;4.00;99.90;;;;;;5152747;27;20470;-57
2022/01/20 02:26:15;;;;;;;1.77;0.90;;;4.00;99.90;;;;;;5151674;27;20480;-57
2022/01/20 02:28:42;;;;;;;2.77;1.20;;;4.00;99.90;;;;;;5152954;27;20461;-54
2022/01/20 02:31:09;;;;;;;4.10;0.80;;;4.00;99.90;;;;;;5152114;27;20440;-55
2022/01/20 02:33:36;;;;;;;6.63;1.10;;;4.00;99.90;;;;;;5152521;27;20906;-53
2022/01/20 02:36:07;;;;;;;13.47;1.10;;;4.00;99.90;;;;;;5153114;27;20440;-55
2022/01/20 02:38:39;;;;;;;2.17;1.00;;;4.00;99.90;;;;;;5153307;27;20448;-55
2022/01/20 02:46:37;;;;;;;3.63;1.03;;;3.90;99.90;;;;;;5153551;28;20492;-55
2022/01/20 02:49:04;;;;;;;3.30;1.00;;;3.90;99.90;;;;;;5153016;27;20468;-57
2022/01/20 02:51:31;;;;;;;1.37;0.73;;;3.90;99.90;;;;;;5153757;27;20441;-49
2022/01/20 02:53:59;;;;;;;4.40;0.90;;;3.80;99.90;;;;;;5154253;27;20440;-54
2022/01/20 02:56:27;;;;;;;1.53;0.80;;;3.80;99.90;;;;;;5154546;27;20440;-53
2022/01/20 02:58:53;;;;;;;2.80;0.60;;;3.70;99.90;;;;;;5154136;27;20463;-56
2022/01/20 03:01:20;;;;;;;2.40;0.90;;;3.70;99.90;;;;;;5154828;27;20435;-53
2022/01/20 03:03:47;;;;;;;2.20;0.80;;;3.70;99.90;;;;;;5155030;27;20461;-55
2022/01/20 03:06:13;;;;;;;16.93;1.57;;;3.60;99.90;;;;;;5153685;27;20484;-52
2022/01/20 03:08:40;;;;;;;11.03;1.40;;;3.60;99.90;;;;;;5153991;27;20497;-50
2022/01/20 03:11:08;;;;;;;5.27;1.17;;;3.60;99.90;;;;;;5154366;27;20460;-54
2022/01/20 03:13:35;;;;;;;1.30;0.80;;;3.60;99.90;;;;;;5153935;27;20499;-54
2022/01/20 03:16:02;;;;;;;2.90;1.03;;;3.50;99.90;;;;;;5152721;27;20437;-58
2022/01/20 03:18:28;;;;;;;13.33;1.77;;;3.50;99.90;;;;;;5152517;27;20451;-51
2022/01/20 03:20:55;;;;;;;2.00;1.67;;;3.50;99.90;;;;;;5153266;27;20452;-55
2022/01/20 03:23:22;;;;;;;12.70;1.20;;;3.40;99.90;;;;;;5153284;27;20467;-51
2022/01/20 03:25:48;;;;;;;2.90;1.43;;;3.40;99.90;;;;;;5153681;27;20471;-55
2022/01/20 03:28:18;;;;;;;3.03;1.23;;;3.30;99.90;;;;;;5154841;27;20470;-52
2022/01/20 03:30:45;;;;;;;6.23;3.17;;;3.30;99.90;;;;;;5155260;27;20436;-54
2022/01/20 03:33:12;;;;;;;2.67;0.87;;;3.30;99.90;;;;;;5154673;27;20444;-57
2022/01/20 03:35:40;;;;;;;1.20;0.77;;;3.30;99.90;;;;;;5154884;27;20456;-54
2022/01/20 03:38:07;;;;;;;5.60;1.23;;;3.30;99.90;;;;;;5154573;27;20507;-50
2022/01/20 03:40:33;;;;;;;1.50;0.90;;;3.40;99.90;;;;;;5153616;27;20500;-58
2022/01/20 03:43:00;;;;;;;2.33;0.90;;;3.40;99.90;;;;;;5154934;27;20469;-55
2022/01/20 03:45:28;;;;;;;5.40;1.10;;;3.40;99.90;;;;;;5155067;27;20501;-53
2022/01/20 03:48:02;;;;;;;2.60;0.90;;;3.40;99.90;;;;;;5153827;27;20471;-52
2022/01/20 03:53:16;;;;;;;2.80;1.17;;;3.30;99.90;;;;;;5149072;27;20527;-51
2022/01/20 03:55:43;;;;;;;1.47;0.70;;;3.40;99.90;;;;;;5148077;27;20428;-52
2022/01/20 03:58:09;;;;;;;1.40;1.30;;;3.40;99.90;;;;;;5148127;27;20841;-54
2022/01/20 04:00:44;;;;;;;2.90;1.10;;;3.50;99.90;;;;;;5149546;27;20525;-53
2022/01/20 04:03:12;;;;;;;1.10;0.73;;;3.50;99.90;;;;;;5148472;27;20499;-53
2022/01/20 04:05:45;;;;;;;12.27;3.30;;;3.50;99.90;;;;;;5149151;27;20840;-50
2022/01/20 04:08:11;;;;;;;1.83;1.70;;;3.60;99.90;;;;;;5151654;27;20476;-52
2022/01/20 04:10:38;;;;;;;12.43;1.67;;;3.60;99.90;;;;;;5149709;27;20456;-53
2022/01/20 04:13:05;;;;;;;2.17;1.20;;;3.60;99.90;;;;;;5147820;27;20476;-52
2022/01/20 04:15:38;;;;;;;4.20;1.10;;;3.60;99.90;;;;;;5149561;27;20444;-54
2022/01/20 04:18:07;;;;;;;4.00;1.40;;;3.60;99.90;;;;;;5149033;27;20468;-48
2022/01/20 04:20:34;;;;;;;8.57;1.20;;;3.60;99.90;;;;;;5150065;27;20479;-54
2022/01/20 04:23:01;;;;;;;4.00;1.47;;;3.60;99.90;;;;;;5151697;27;20946;-53
2022/01/20 04:25:28;;;;;;;3.53;2.17;;;3.60;99.90;;;;;;5151965;27;20476;-52
2022/01/20 04:27:55;;;;;;;31.87;1.60;;;3.60;99.90;;;;;;5149406;27;20444;-52
2022/01/20 04:30:23;;;;;;;1.30;1.20;;;3.60;99.90;;;;;;5148668;27;20460;-54
2022/01/20 04:32:49;;;;;;;2.70;0.90;;;3.50;99.90;;;;;;5150569;27;20444;-53
2022/01/20 04:35:20;;;;;;;1.30;0.73;;;3.20;99.90;;;;;;5151002;27;20444;-50
2022/01/20 04:37:48;;;;;;;0.90;0.60;;;2.80;99.90;;;;;;5149961;27;20504;-53
2022/01/20 04:40:15;;;;;;;1.10;0.67;;;2.50;99.90;;;;;;5149020;27;20440;-54
2022/01/20 04:42:44;;;;;;;2.83;1.13;;;2.20;99.90;;;;;;5148048;27;20478;-52
2022/01/20 04:45:14;;;;;;;3.00;0.80;;;2.20;99.90;;;;;;5149475;27;20463;-53
2022/01/20 04:47:47;;;;;;;1.40;1.30;;;1.90;99.90;;;;;;5150746;27;20425;-53
2022/01/20 04:58:30;;;;;;;4.70;0.80;;;1.40;99.90;;;;;;5150330;27;20407;-51
2022/01/20 05:00:56;;;;;;;3.27;1.83;;;1.40;99.90;;;;;;5150559;27;20796;-56
2022/01/20 05:03:24;;;;;;;1.07;0.97;;;1.40;99.90;;;;;;5152399;27;20500;-50
2022/01/20 05:05:51;;;;;;;1.33;1.23;;;1.50;99.90;;;;;;5152215;27;20483;-55
2022/01/20 05:08:22;;;;;;;4.33;0.83;;;1.60;99.90;;;;;;5151003;27;20477;-51
2022/01/20 05:10:49;;;;;;;3.63;1.10;;;1.60;99.90;;;;;;5150965;27;20443;-48
2022/01/20 05:13:23;;;;;;;0.80;0.60;;;1.60;99.90;;;;;;5151478;27;20475;-52
2022/01/20 05:15:50;;;;;;;2.50;0.80;;;1.60;99.90;;;;;;5151972;27;20441;-52
2022/01/20 05:18:17;;;;;;;6.30;0.70;;;1.70;99.90;;;;;;5150123;27;20472;-51
2022/01/20 05:20:44;;;;;;;3.83;1.07;;;1.80;99.90;;;;;;5150018;27;20451;-54
2022/01/20 05:23:10;;;;;;;2.40;1.47;;;1.90;99.90;;;;;;5150378;27;20444;-52
2022/01/20 05:25:39;;;;;;;0.90;0.70;;;1.90;99.90;;;;;;5147170;27;20483;-52
2022/01/20 05:28:05;;;;;;;3.63;0.90;;;1.90;99.90;;;;;;5147312;27;20453;-54
2022/01/20 05:30:32;;;;;;;0.80;0.50;;;2.00;99.90;;;;;;5151081;27;20473;-52
2022/01/20 05:33:00;;;;;;;1.00;0.70;;;2.10;99.90;;;;;;5150819;27;20477;-51
2022/01/20 05:35:27;;;;;;;0.83;0.67;;;2.10;99.90;;;;;;5149468;27;20451;-54
2022/01/20 05:37:53;;;;;;;2.03;0.93;;;2.10;99.90;;;;;;5147915;27;20496;-47
2022/01/20 05:40:20;;;;;;;3.10;1.23;;;2.10;99.90;;;;;;5148456;27;20440;-51
2022/01/20 05:42:48;;;;;;;5.57;1.10;;;2.20;99.90;;;;;;5148303;27;20448;-52
2022/01/20 05:45:15;;;;;;;2.30;1.20;;;2.00;99.90;;;;;;5147279;27;20438;-50
2022/01/20 05:47:45;;;;;;;1.27;0.80;;;2.20;99.90;;;;;;5148190;27;20973;-50
2022/01/20 05:50:14;;;;;;;1.03;0.90;;;2.20;99.90;;;;;;5149262;27;20862;-54
2022/01/20 05:52:42;;;;;;;1.93;0.73;;;2.20;99.90;;;;;;5152086;27;20460;-53
2022/01/20 05:55:10;;;;;;;0.80;0.57;;;2.20;99.90;;;;;;5150726;27;20488;-53
2022/01/20 05:57:37;;;;;;;1.20;1.00;;;2.20;99.90;;;;;;5149312;27;20899;-53
2022/01/20 06:00:09;;;;;;;5.93;0.77;;;2.20;99.90;;;;;;5148442;27;20464;-50
2022/01/20 06:03:35;;;;;;;0.80;0.60;;;2.30;99.90;;;;;;5147791;27;20471;-51
2022/01/20 06:05:22;;;;;;;1.47;0.80;;;2.30;99.90;;;;;;5147795;27;20444;-52
2022/01/20 06:07:49;;;;;;;1.43;0.80;;;2.40;99.90;;;;;;5149060;27;20614;-53
2022/01/20 06:10:15;;;;;;;7.93;1.63;;;2.40;99.90;;;;;;5146546;27;20452;-51
2022/01/20 06:12:42;;;;;;;0.80;0.50;;;2.40;99.90;;;;;;5149528;27;20444;-49
2022/01/20 06:15:13;;;;;;;3.27;0.70;;;2.40;99.90;;;;;;5148884;27;20444;-49
2022/01/20 06:17:40;;;;;;;0.90;0.70;;;2.50;99.90;;;;;;5148335;27;20470;-51
2022/01/20 06:20:08;;;;;;;0.80;0.60;;;2.50;99.90;;;;;;5152115;27;20471;-49
2022/01/20 06:22:35;;;;;;;1.03;0.93;;;2.50;99.90;;;;;;5152069;27;20455;-50
2022/01/20 06:25:02;;;;;;;2.50;0.73;;;2.40;99.90;;;;;;5149932;27;20440;-49
2022/01/20 06:27:29;;;;;;;24.87;1.00;;;2.40;99.90;;;;;;5148212;27;20475;-54
2022/01/20 06:29:56;;;;;;;2.17;1.47;;;2.40;99.90;;;;;;5147607;27;20477;-50
2022/01/20 06:32:24;;;;;;;1.00;0.70;;;2.50;99.90;;;;;;5149199;27;20472;-48
2022/01/20 06:34:50;;;;;;;2.70;2.10;;;2.40;99.90;;;;;;5147425;27;20875;-52
2022/01/20 06:37:17;;;;;;;3.07;0.60;;;2.40;99.90;;;;;;5146019;27;20452;-52
2022/01/20 06:39:44;;;;;;;0.90;0.60;;;2.40;99.90;;;;;;5149318;27;20634;-49
2022/01/20 06:42:12;;;;;;;3.13;1.33;;;2.30;99.90;;;;;;5149259;27;20443;-53
2022/01/20 06:44:38;;;;;;;2.50;0.90;;;2.20;99.90;;;;;;5149182;27;20474;-48
2022/01/20 06:47:06;;;;;;;1.13;0.83;;;2.20;99.90;;;;;;5151379;27;20573;-53
2022/01/20 06:49:34;;;;;;;1.20;0.77;;;2.10;99.90;;;;;;5147099;27;20440;-54
2022/01/20 06:52:00;;;;;;;1.33;1.03;;;2.10;99.90;;;;;;5146183;27;20516;-53
2022/01/20 06:54:27;;;;;;;1.20;0.70;;;2.10;99.90;;;;;;5147539;27;20511;-51
2022/01/20 06:56:54;;;;;;;1.50;0.80;;;2.10;99.90;;;;;;5148068;27;20470;-50
2022/01/20 06:59:21;;;;;;;0.80;0.60;;;2.10;99.90;;;;;;5146816;27;20452;-52
2022/01/20 07:01:51;;;;;;;0.80;0.50;;;2.00;99.90;;;;;;5152015;27;20456;-50
2022/01/20 07:04:18;;;;;;;1.83;1.03;;;2.10;99.90;;;;;;5146919;28;20471;-49
2022/01/20 07:06:55;;;;;;;4.40;0.63;;;2.00;99.90;;;;;;5152733;28;20491;-44
2022/01/20 07:09:27;;;;;;;0.90;0.70;;;2.00;99.90;;;;;;5159910;28;20437;-48
2022/01/20 07:11:56;;;;;;;0.80;0.50;;;2.00;99.90;;;;;;5159816;28;20544;-45
2022/01/20 07:14:23;;;;;;;0.90;0.60;;;2.00;99.90;;;;;;5159901;28;20438;-49
2022/01/20 07:16:49;;;;;;;2.30;0.77;;;2.10;99.90;;;;;;5159827;27;20469;-46
2022/01/20 07:19:16;;;;;;;2.40;0.80;;;2.10;99.90;;;;;;5159746;28;20413;-45
2022/01/20 07:21:43;;;;;;;0.80;0.60;;;2.20;99.90;;;;;;5159712;28;20439;-47
2022/01/20 07:24:11;;;;;;;2.03;1.53;;;2.20;99.90;;;;;;5160161;27;20420;-47
2022/01/20 07:26:38;;;;;;;0.80;0.60;;;2.10;99.90;;;;;;5163522;27;20471;-48
2022/01/20 07:29:08;;;;;;;0.80;0.60;;;2.10;99.90;;;;;;5163711;27;20423;-45
2022/01/20 07:31:37;;;;;;;3.37;1.00;;;2.10;99.90;;;;;;5163552;27;20448;-47
2022/01/20 07:34:10;;;;;;;9.60;1.77;;;2.20;99.90;;;;;;5163515;27;20439;-42
2022/01/20 07:36:38;;;;;;;17.03;1.47;;;2.20;99.90;;;;;;5163458;27;20499;-48
2022/01/20 07:39:05;;;;;;;1.60;0.73;;;2.30;99.90;;;;;;5163457;27;20404;-41
2022/01/20 07:41:35;;;;;;;3.80;1.30;;;2.30;99.90;;;;;;5163225;27;20449;-45
2022/01/20 07:44:04;;;;;;;0.83;0.57;;;2.40;99.90;;;;;;5163333;27;20430;-45
2022/01/20 07:46:31;;;;;;;1.50;1.30;;;3.10;99.90;;;;;;5163113;27;20487;-44
2022/01/20 07:48:59;;;;;;;0.90;0.70;;;2.90;99.90;;;;;;5163431;27;20428;-48
2022/01/20 07:51:31;;;;;;;2.07;0.80;;;2.70;99.90;;;;;;5162977;27;20412;-44
2022/01/20 07:53:57;;;;;;;1.30;0.77;;;2.40;99.90;;;;;;5163061;27;20430;-46
2022/01/20 07:56:25;;;;;;;1.47;0.70;;;2.30;99.90;;;;;;5162791;27;20502;-45
2022/01/20 07:58:53;;;;;;;3.40;1.60;;;2.10;99.90;;;;;;5163145;27;20412;-52
2022/01/20 08:01:24;;;;;;;6.87;1.20;;;2.10;99.90;;;;;;5162989;27;20444;-47
2022/01/20 08:03:53;;;;;;;0.80;0.50;;;2.10;99.90;;;;;;5162916;27;20423;-45
2022/01/20 08:06:22;;;;;;;1.50;0.83;;;2.10;99.90;;;;;;5162904;27;20424;-45
2022/01/20 08:08:50;;;;;;;1.77;0.70;;;2.10;99.90;;;;;;5162851;27;20408;-45
2022/01/20 08:11:19;;;;;;;1.40;0.90;;;2.00;99.90;;;;;;5162730;27;20432;-44
2022/01/20 08:13:45;;;;;;;2.80;0.90;;;2.00;99.90;;;;;;5162787;27;20405;-46
2022/01/20 08:16:13;;;;;;;0.90;0.80;;;1.90;99.90;;;;;;5162663;27;20419;-51
2022/01/20 08:18:43;;;;;;;1.87;1.30;;;1.90;99.90;;;;;;5162602;27;20460;-44
2022/01/20 08:21:12;;;;;;;6.60;1.97;;;1.90;99.90;;;;;;5162683;27;20404;-47
2022/01/20 08:23:38;;;;;;;3.17;2.10;;;2.00;99.90;;;;;;5162540;27;20436;-46
2022/01/20 08:26:07;;;;;;;0.90;0.70;;;2.10;99.90;;;;;;5162192;27;20404;-42
2022/01/20 08:28:35;;;;;;;3.10;1.07;;;2.30;99.90;;;;;;5162335;27;20451;-43
2022/01/20 08:31:02;;;;;;;1.33;0.80;;;2.40;99.90;;;;;;5162454;27;20430;-47
2022/01/20 08:33:31;;;;;;;4.20;0.80;;;2.50;99.90;;;;;;5162303;27;20444;-41
2022/01/20 08:35:59;;;;;;;12.73;2.47;;;2.50;99.90;;;;;;5162034;27;20472;-45
2022/01/20 08:38:28;;;;;;;1.30;0.63;;;2.40;99.90;;;;;;5162216;27;20440;-45
2022/01/20 08:40:55;;;;;;;15.27;1.43;;;2.50;99.90;;;;;;5162187;27;20471;-46
2022/01/20 08:43:29;;;;;;;2.47;1.10;;;2.50;99.90;;;;;;5162232;27;20437;-48
2022/01/20 08:45:55;;;;;;;2.03;1.83;;;2.40;99.90;;;;;;5162186;27;20408;-43
2022/01/20 08:48:24;;;;;;;0.80;0.60;;;2.40;99.90;;;;;;5161917;27;20468;-44
2022/01/20 08:50:52;;;;;;;1.80;1.00;;;2.40;99.90;;;;;;5162025;27;20484;-43
2022/01/20 08:53:22;;;;;;;15.03;1.70;;;2.40;99.90;;;;;;5161739;27;20455;-47
2022/01/20 08:55:50;;;;;;;1.00;0.60;;;2.30;99.90;;;;;;5162081;27;20401;-46
2022/01/20 08:58:20;;;;;;;3.27;1.07;;;2.40;99.90;;;;;;5161832;27;20436;-48
2022/01/20 09:00:49;;;;;;;2.60;1.07;;;2.40;99.90;;;;;;5161742;27;20431;-45
2022/01/20 09:03:15;;;;;;;2.40;0.83;;;2.50;99.90;;;;;;5161463;27;20470;-46
2022/01/20 09:05:48;;;;;;;1.30;1.17;;;2.50;99.90;;;;;;5161517;27;20446;-46
2022/01/20 09:08:17;;;;;;;11.00;2.20;;;2.40;99.90;;;;;;5161588;27;20509;-43
2022/01/20 09:10:51;;;;;;;2.30;1.63;;;2.50;99.90;;;;;;5161684;27;20440;-44
2022/01/20 09:16:02;;;;;;;4.50;0.73;;;2.70;99.90;;;;;;5161726;27;20406;-44
2022/01/20 09:18:33;;;;;;;6.10;1.00;;;2.90;99.90;;;;;;5161437;27;20439;-48
2022/01/20 09:21:01;;;;;;;0.80;0.50;;;3.10;99.90;;;;;;5161505;27;20423;-41
2022/01/20 09:23:31;;;;;;;0.90;0.60;;;3.10;99.90;;;;;;5161516;27;20446;-41
2022/01/20 09:25:59;;;;;;;1.00;0.83;;;3.00;99.90;;;;;;5161392;27;20405;-47
2022/01/20 09:28:28;;;;;;;4.10;1.10;;;2.90;99.90;;;;;;5160981;27;20493;-46
2022/01/20 09:31:00;;;;;;;1.83;1.73;;;2.90;99.90;;;;;;5161163;27;20455;-46
2022/01/20 09:33:29;;;;;;;1.97;1.17;;;2.90;99.90;;;;;;5161264;27;20494;-46
2022/01/20 09:35:58;;;;;;;0.80;0.50;;;2.90;99.90;;;;;;5161266;27;20423;-43
2022/01/20 09:38:25;;;;;;;2.40;2.20;;;2.90;99.90;;;;;;5160940;27;20460;-46
2022/01/20 09:40:55;;;;;;;0.80;0.60;;;2.80;99.90;;;;;;5161124;27;20431;-44
2022/01/20 09:43:22;;;;;;;6.43;1.03;;;2.80;99.90;;;;;;5160968;27;20432;-44
2022/01/20 09:45:55;;;;;;;3.00;1.33;;;2.80;99.90;;;;;;5161029;27;20418;-44
2022/01/20 09:48:22;;;;;;;3.23;1.63;;;2.70;99.90;;;;;;5160194;27;20467;-47
2022/01/20 09:50:55;;;;;;;0.90;0.70;;;2.70;99.90;;;;;;5160790;27;20416;-46
2022/01/20 09:53:26;;;;;;;0.97;0.60;;;2.80;99.90;;;;;;5160646;27;20440;-47
2022/01/20 09:55:54;;;;;;;9.57;1.00;;;2.80;99.90;;;;;;5160914;27;20412;-46
2022/01/20 09:58:24;;;;;;;9.50;2.10;;;2.70;99.90;;;;;;5160663;27;20444;-48
2022/01/20 10:00:51;;;;;;;4.20;1.07;;;2.70;99.90;;;;;;5160820;27;20437;-43
2022/01/20 10:03:20;;;;;;;6.23;1.23;;;2.80;99.90;;;;;;5160580;27;20443;-48
2022/01/20 10:05:49;;;;;;;1.53;1.20;;;2.80;99.90;;;;;;5160613;27;20434;-46
2022/01/20 10:08:22;;;;;;;4.10;1.03;;;2.80;99.90;;;;;;5160261;27;20531;-44
2022/01/20 10:10:50;;;;;;;3.30;1.20;;;2.90;99.90;;;;;;5160511;27;20420;-42
2022/01/20 10:13:21;;;;;;;4.20;0.87;;;2.80;99.90;;;;;;5160401;27;20511;-47
2022/01/20 10:16:01;;;;;;;1.07;0.60;;;2.90;99.90;;;;;;5160387;27;20424;-49
2022/01/20 10:18:38;;;;;;;4.90;1.33;;;3.00;99.90;;;;;;5160233;27;20461;-44
2022/01/20 10:21:06;;;;;;;6.63;1.00;;;3.10;99.90;;;;;;5160435;27;20416;-43
2022/01/20 10:23:38;;;;;;;1.63;1.13;;;3.10;99.90;;;;;;5160288;27;20434;-48
2022/01/20 10:26:13;;;;;;;10.30;1.30;;;3.10;99.90;;;;;;5160379;27;20412;-47
2022/01/20 10:28:56;;;;;;;2.90;1.63;;;3.20;99.90;;;;;;5160043;27;20470;-45
2022/01/20 10:31:37;;;;;;;1.60;1.00;;;3.30;99.90;;;;;;5160259;27;20422;-44
2022/01/20 10:34:08;;;;;;;5.27;1.03;;;3.40;99.90;;;;;;5159972;27;20439;-45
2022/01/20 10:36:40;;;;;;;3.73;1.77;;;3.60;99.90;;;;;;5160125;27;20427;-41
2022/01/20 10:39:07;;;;;;;5.43;1.60;;;3.70;99.90;;;;;;5160161;27;20436;-45
2022/01/20 10:41:38;;;;;;;4.33;1.00;;;3.70;99.90;;;;;;5159985;27;20475;-48
2022/01/20 10:44:15;;;;;;;1.77;1.57;;;3.70;99.90;;;;;;5160033;27;20452;-45
2022/01/20 10:46:43;;;;;;;1.90;0.87;;;3.50;99.90;;;;;;5160078;28;20430;-43
2022/01/20 10:49:10;;;;;;;2.50;0.90;;;3.40;99.90;;;;;;5159829;28;20468;-42
2022/01/20 10:51:38;;;;;;;8.30;1.87;;;3.40;99.90;;;;;;5159705;28;20443;-46
2022/01/20 10:54:09;;;;;;;6.70;1.30;;;3.40;99.90;;;;;;5159733;28;20448;-49
2022/01/20 10:56:53;;;;;;;22.73;1.90;;;3.50;99.90;;;;;;5159731;28;20498;-41
2022/01/20 10:59:22;;;;;;;4.00;1.77;;;3.60;99.90;;;;;;5162441;27;20455;-43
2022/01/20 11:02:13;;;;;;;1.40;1.30;;;3.60;99.90;;;;;;5164200;27;20440;-45
2022/01/20 11:04:40;;;;;;;14.40;3.10;;;3.60;99.90;;;;;;5158840;27;20436;-44
2022/01/20 11:07:08;;;;;;;7.07;1.67;;;3.60;99.90;;;;;;5164069;27;20416;-46
2022/01/20 11:09:39;;;;;;;7.47;1.67;;;3.60;99.90;;;;;;5163969;27;20459;-48
2022/01/20 11:12:06;;;;;;;13.00;1.30;;;3.60;99.90;;;;;;5164139;27;20400;-49
2022/01/20 11:14:35;;;;;;;17.80;1.00;;;3.60;99.90;;;;;;5163993;27;20462;-46
2022/01/20 11:17:03;;;;;;;2.30;1.10;;;3.60;99.90;;;;;;5163724;27;20440;-44
2022/01/20 11:19:35;;;;;;;1.10;0.80;;;3.60;99.90;;;;;;5163772;27;20446;-48
2022/01/20 11:22:08;;;;;;;6.73;2.30;;;3.60;99.90;;;;;;5163738;27;20409;-44
2022/01/20 11:24:37;;;;;;;1.67;0.93;;;3.60;99.90;;;;;;5163541;27;20511;-45
2022/01/20 11:27:06;;;;;;;6.10;1.27;;;3.60;99.90;;;;;;5163644;27;20416;-45
2022/01/20 11:29:45;;;;;;;4.60;1.70;;;3.60;99.90;;;;;;5163784;27;20457;-44
2022/01/20 11:32:25;;;;;;;1.10;0.90;;;3.50;99.90;;;;;;5163644;27;20436;-46
2022/01/20 11:35:00;;;;;;;0.90;0.70;;;3.50;99.90;;;;;;5163279;27;20438;-50
2022/01/20 11:37:29;;;;;;;3.23;1.07;;;3.50;99.90;;;;;;5163543;27;20447;-45
2022/01/20 11:40:09;;;;;;;1.20;0.73;;;3.60;99.90;;;;;;5163377;27;20440;-47
2022/01/20 11:42:38;;;;;;;2.80;1.47;;;3.60;99.90;;;;;;5163476;27;20408;-45
2022/01/20 11:45:26;;;;;;;4.53;0.80;;;3.70;99.90;;;;;;5163324;27;20444;-41
2022/01/20 11:47:53;;;;;;;1.60;1.10;;;3.80;99.90;;;;;;5163242;27;20450;-43
2022/01/20 11:50:22;;;;;;;1.57;1.10;;;3.80;99.90;;;;;;5163191;27;20436;-47
2022/01/20 11:52:49;;;;;;;1.23;0.83;;;3.80;99.90;;;;;;5163146;27;20463;-48
2022/01/20 11:55:18;;;;;;;1.37;0.80;;;3.80;99.90;;;;;;5163108;27;20597;-42
2022/01/20 11:57:45;;;;;;;2.83;1.10;;;3.80;99.90;;;;;;5163146;27;20417;-41
2022/01/20 14:54:02;;;;;;;9.77;1.77;;;2.90;99.90;;;;;;5605211;23;20507;-55
2022/01/20 14:56:30;;;;;;;1.77;1.20;;;3.00;99.90;;;;;;4956547;28;20464;-55
2022/01/20 14:58:57;;;;;;;6.53;1.30;;;3.00;99.90;;;;;;4956717;28;20447;-57
2022/01/20 15:01:24;;;;;;;2.33;0.87;;;3.00;99.90;;;;;;4956652;28;20436;-59
2022/01/20 15:03:51;;;;;;;0.80;0.60;;;3.10;99.90;;;;;;4956553;28;20448;-54
2022/01/20 15:06:18;;;;;;;12.23;1.53;;;3.20;99.90;;;;;;4956648;28;20484;-56
2022/01/20 15:08:44;;;;;;;2.30;1.43;;;3.10;99.90;;;;;;4956447;28;20615;-56
2022/01/20 15:11:12;;;;;;;3.33;1.40;;;3.10;99.90;;;;;;4956815;28;20514;-57
2022/01/20 15:13:39;;;;;;;1.00;0.80;;;3.00;99.90;;;;;;4956410;28;20522;-55
2022/01/20 15:16:07;;;;;;;2.10;0.97;;;2.90;99.90;;;;;;4956680;28;20571;-57
2022/01/20 15:18:34;;;;;;;1.13;0.67;;;2.70;99.90;;;;;;4956444;28;20448;-56
2022/01/20 15:21:01;;;;;;;13.53;0.97;;;2.50;99.90;;;;;;4956759;28;20487;-57
2022/01/20 15:23:28;;;;;;;5.70;1.13;;;2.50;99.90;;;;;;4956603;28;20456;-61
2022/01/20 15:25:55;;;;;;;5.13;1.17;;;2.40;99.90;;;;;;4956485;28;20463;-55
2022/01/20 15:28:24;;;;;;;6.30;0.90;;;2.30;99.90;;;;;;4956118;28;20488;-58
2022/01/20 15:30:51;;;;;;;4.10;1.83;;;2.20;99.90;;;;;;4956555;28;20462;-59
2022/01/20 15:33:18;;;;;;;2.17;1.27;;;2.20;99.90;;;;;;4956573;28;20911;-52
2022/01/20 15:35:45;;;;;;;1.00;0.90;;;2.20;99.90;;;;;;4956443;28;20452;-53
2022/01/20 15:38:12;;;;;;;2.80;0.90;;;2.20;99.90;;;;;;4956201;28;20546;-54
2022/01/20 15:40:38;;;;;;;2.43;1.10;;;2.20;99.90;;;;;;4956528;28;20975;-54
2022/01/20 15:43:05;;;;;;;5.53;1.10;;;2.20;99.90;;;;;;4956699;28;20547;-55
2022/01/20 15:45:33;;;;;;;3.93;2.97;;;2.20;99.90;;;;;;4957174;28;20476;-57
2022/01/20 15:48:00;;;;;;;2.23;1.20;;;2.20;99.90;;;;;;4959822;28;20492;-54
2022/01/20 15:50:27;;;;;;;1.60;1.07;;;2.20;99.90;;;;;;4960098;28;20507;-58
2022/01/20 15:52:54;;;;;;;10.03;1.00;;;2.20;99.90;;;;;;4959660;28;20480;-52
2022/01/20 15:55:21;;;;;;;8.17;1.67;;;2.20;99.90;;;;;;4959986;28;20517;-56
2022/01/20 15:57:48;;;;;;;2.80;1.83;;;2.30;99.90;;;;;;4959879;28;20476;-57
2022/01/20 16:00:16;;;;;;;1.67;0.90;;;2.30;99.90;;;;;;4959609;28;20919;-56
2022/01/20 16:02:44;;;;;;;4.63;1.03;;;2.30;99.90;;;;;;4959605;28;20476;-53
2022/01/20 16:05:12;;;;;;;12.83;2.80;;;2.40;99.90;;;;;;4959956;28;20907;-59
2022/01/20 16:07:39;;;;;;;3.87;0.90;;;2.30;99.90;;;;;;4959659;28;20547;-58
2022/01/20 16:10:06;;;;;;;16.30;1.33;;;2.30;99.90;;;;;;4959488;28;20491;-55
2022/01/20 16:12:33;;;;;;;1.40;0.83;;;2.30;99.90;;;;;;4959417;28;20543;-58
2022/01/20 16:15:00;;;;;;;3.47;1.90;;;2.30;99.90;;;;;;4959558;28;20483;-58
2022/01/20 16:17:27;;;;;;;1.37;0.80;;;2.30;99.90;;;;;;4959526;28;20507;-53
2022/01/20 16:19:55;;;;;;;1.10;1.00;;;2.40;99.90;;;;;;4959192;28;20444;-56
2022/01/20 16:22:22;;;;;;;2.20;1.43;;;2.30;99.90;;;;;;4959359;28;20460;-55
2022/01/20 16:24:49;;;;;;;1.30;0.77;;;2.20;99.90;;;;;;4959215;28;20914;-61
2022/01/20 16:27:16;;;;;;;0.90;0.60;;;2.20;99.90;;;;;;4959350;28;20456;-61
2022/01/20 16:29:43;;;;;;;2.20;1.27;;;2.10;99.90;;;;;;4959089;28;20488;-54
2022/01/20 16:32:10;;;;;;;1.63;0.80;;;2.10;99.90;;;;;;4959425;28;20483;-61
2022/01/20 16:34:37;;;;;;;0.80;0.60;;;2.10;99.90;;;;;;4959498;28;20456;-57
2022/01/20 16:37:05;;;;;;;5.80;1.33;;;2.10;99.90;;;;;;4958944;28;20507;-55
2022/01/20 16:39:33;;;;;;;3.57;0.90;;;2.00;99.90;;;;;;4959075;28;20451;-57
2022/01/20 16:42:00;;;;;;;0.90;0.60;;;1.90;99.90;;;;;;4958988;28;20539;-54
2022/01/20 16:44:26;;;;;;;2.90;1.00;;;1.80;99.90;;;;;;4958776;28;20935;-55
2022/01/20 16:46:54;;;;;;;5.60;3.00;;;1.80;99.90;;;;;;4958717;28;20548;-57
2022/01/20 16:49:21;;;;;;;5.60;3.73;;;1.80;99.90;;;;;;4959100;28;20492;-53
2022/01/20 16:51:48;;;;;;;1.60;1.20;;;1.70;99.90;;;;;;4958852;28;20460;-57
2022/01/20 16:54:16;;;;;;;1.20;0.90;;;1.80;99.90;;;;;;4958701;28;20456;-59